sensor_id;sensor_type;location;lat;lon;timestamp;pressure;altitude;pressure_sealevel;temperature;humidity
52735;BME280;38631;47.572;10.704;2023-04-27T00:01:14;92541.28;;;6.34;100.00
52735;BME280;38631;47.572;10.704;2023-04-27T00:03:41;92546.03;;;6.32;100.00
52735;BME280;38631;47.572;10.704;2023-04-27T00:06:09;92541.22;;;6.39;100.00
52735;BME280;38631;47.572;10.704;2023-04-27T00:08:34;92541.16;;;6.44;100.00
52735;BME280;38631;47.572;10.704;2023-04-27T00:11:00;92538.53;;;6.44;100.00
52735;BME280;38631;47.572;10.704;2023-04-27T00:13:26;92540.13;;;6.45;100.00
52735;BME280;38631;47.572;10.704;2023-04-27T00:15:52;92540.69;;;6.37;100.00
52735;BME280;38631;47.572;10.704;2023-04-27T00:18:17;92534.22;;;6.24;100.00
52735;BME280;38631;47.572;10.704;2023-04-27T00:20:43;92534.66;;;6.36;100.00
52735;BME280;38631;47.572;10.704;2023-04-27T00:23:09;92530.56;;;6.25;100.00
52735;BME280;38631;47.572;10.704;2023-04-27T00:25:35;92538.31;;;6.40;100.00
52735;BME280;38631;47.572;10.704;2023-04-27T00:28:00;92526.88;;;6.50;100.00
52735;BME280;38631;47.572;10.704;2023-04-27T00:30:26;92523.72;;;6.48;100.00
52735;BME280;38631;47.572;10.704;2023-04-27T00:32:51;92522.44;;;6.45;100.00
52735;BME280;38631;47.572;10.704;2023-04-27T00:35:17;92518.03;;;6.36;100.00
52735;BME280;38631;47.572;10.704;2023-04-27T00:37:42;92515.31;;;6.46;100.00
52735;BME280;38631;47.572;10.704;2023-04-27T00:40:08;92514.69;;;6.54;100.00
52735;BME280;38631;47.572;10.704;2023-04-27T00:42:34;92515.88;;;6.43;100.00
52735;BME280;38631;47.572;10.704;2023-04-27T00:45:00;92520.84;;;6.44;100.00
52735;BME280;38631;47.572;10.704;2023-04-27T00:47:26;92515.09;;;6.42;100.00
52735;BME280;38631;47.572;10.704;2023-04-27T00:49:51;92514.06;;;6.38;100.00
52735;BME280;38631;47.572;10.704;2023-04-27T00:52:17;92523.22;;;6.46;100.00
52735;BME280;38631;47.572;10.704;2023-04-27T00:54:43;92523.78;;;6.43;100.00
52735;BME280;38631;47.572;10.704;2023-04-27T00:57:09;92523.78;;;6.43;100.00
52735;BME280;38631;47.572;10.704;2023-04-27T00:59:34;92520.13;;;6.39;100.00
52735;BME280;38631;47.572;10.704;2023-04-27T01:02:00;92516.25;;;6.31;100.00
52735;BME280;38631;47.572;10.704;2023-04-27T01:04:26;92518.00;;;6.41;100.00
52735;BME280;38631;47.572;10.704;2023-04-27T01:06:52;92511.16;;;6.40;100.00
52735;BME280;38631;47.572;10.704;2023-04-27T01:09:18;92521.09;;;6.48;100.00
52735;BME280;38631;47.572;10.704;2023-04-27T01:11:44;92521.09;;;6.48;100.00
52735;BME280;38631;47.572;10.704;2023-04-27T01:14:09;92515.25;;;6.51;100.00
52735;BME280;38631;47.572;10.704;2023-04-27T01:16:35;92519.84;;;6.40;100.00
52735;BME280;38631;47.572;10.704;2023-04-27T01:19:01;92511.88;;;6.45;100.00
52735;BME280;38631;47.572;10.704;2023-04-27T01:21:26;92522.13;;;6.52;100.00
52735;BME280;38631;47.572;10.704;2023-04-27T01:23:52;92527.88;;;6.54;100.00
52735;BME280;38631;47.572;10.704;2023-04-27T01:26:18;92522.44;;;6.45;100.00
52735;BME280;38631;47.572;10.704;2023-04-27T01:28:43;92515.09;;;6.42;100.00
52735;BME280;38631;47.572;10.704;2023-04-27T01:31:09;92525.69;;;6.37;100.00
52735;BME280;38631;47.572;10.704;2023-04-27T01:33:35;92516.69;;;6.38;100.00
52735;BME280;38631;47.572;10.704;2023-04-27T01:36:01;92518.22;;;6.44;100.00
52735;BME280;38631;47.572;10.704;2023-04-27T01:38:26;92517.22;;;6.40;100.00
52735;BME280;38631;47.572;10.704;2023-04-27T01:40:52;92520.38;;;6.42;100.00
52735;BME280;38631;47.572;10.704;2023-04-27T01:43:19;92525.84;;;6.46;100.00
52735;BME280;38631;47.572;10.704;2023-04-27T01:45:45;92517.38;;;6.25;100.00
52735;BME280;38631;47.572;10.704;2023-04-27T01:48:10;92522.03;;;6.33;100.00
52735;BME280;38631;47.572;10.704;2023-04-27T01:50:36;92524.28;;;6.45;100.00
52735;BME280;38631;47.572;10.704;2023-04-27T01:53:01;92526.63;;;6.46;100.00
52735;BME280;38631;47.572;10.704;2023-04-27T01:55:27;92530.56;;;6.49;100.00
52735;BME280;38631;47.572;10.704;2023-04-27T01:57:53;92534.28;;;6.48;100.00
52735;BME280;38631;47.572;10.704;2023-04-27T02:00:18;92538.06;;;6.37;100.00
52735;BME280;38631;47.572;10.704;2023-04-27T02:02:43;92535.25;;;6.28;100.00
52735;BME280;38631;47.572;10.704;2023-04-27T02:05:09;92543.63;;;6.35;100.00
52735;BME280;38631;47.572;10.704;2023-04-27T02:07:35;92560.41;;;6.44;100.00
52735;BME280;38631;47.572;10.704;2023-04-27T02:10:00;92561.16;;;6.50;100.00
52735;BME280;38631;47.572;10.704;2023-04-27T02:12:26;92569.63;;;6.47;100.00
52735;BME280;38631;47.572;10.704;2023-04-27T02:14:53;92567.06;;;6.37;100.00
52735;BME280;38631;47.572;10.704;2023-04-27T02:17:18;92565.03;;;6.28;100.00
52735;BME280;38631;47.572;10.704;2023-04-27T02:19:44;92574.59;;;6.24;100.00
52735;BME280;38631;47.572;10.704;2023-04-27T02:22:09;92566.94;;;6.23;100.00
52735;BME280;38631;47.572;10.704;2023-04-27T02:24:35;92572.13;;;6.33;100.00
52735;BME280;38631;47.572;10.704;2023-04-27T02:27:00;92578.84;;;6.20;100.00
52735;BME280;38631;47.572;10.704;2023-04-27T02:29:29;92575.81;;;6.03;100.00
52735;BME280;38631;47.572;10.704;2023-04-27T02:31:54;92582.34;;;6.11;100.00
52735;BME280;38631;47.572;10.704;2023-04-27T02:34:20;92578.22;;;5.94;100.00
52735;BME280;38631;47.572;10.704;2023-04-27T02:36:45;92584.09;;;5.81;100.00
52735;BME280;38631;47.572;10.704;2023-04-27T02:39:11;92578.38;;;5.69;100.00
52735;BME280;38631;47.572;10.704;2023-04-27T02:41:36;92584.16;;;5.71;100.00
52735;BME280;38631;47.572;10.704;2023-04-27T02:44:02;92580.72;;;5.75;100.00
52735;BME280;38631;47.572;10.704;2023-04-27T02:46:27;92580.53;;;5.61;100.00
52735;BME280;38631;47.572;10.704;2023-04-27T02:48:52;92580.44;;;5.77;100.00
52735;BME280;38631;47.572;10.704;2023-04-27T02:51:18;92586.34;;;6.03;100.00
52735;BME280;38631;47.572;10.704;2023-04-27T02:53:43;92586.41;;;5.93;100.00
52735;BME280;38631;47.572;10.704;2023-04-27T02:56:09;92576.41;;;5.90;100.00
52735;BME280;38631;47.572;10.704;2023-04-27T02:58:35;92583.94;;;5.67;100.00
52735;BME280;38631;47.572;10.704;2023-04-27T03:01:00;92581.66;;;5.95;100.00
52735;BME280;38631;47.572;10.704;2023-04-27T03:03:26;92582.16;;;6.02;100.00
52735;BME280;38631;47.572;10.704;2023-04-27T03:05:52;92578.22;;;5.94;100.00
52735;BME280;38631;47.572;10.704;2023-04-27T03:08:17;92583.50;;;5.94;100.00
52735;BME280;38631;47.572;10.704;2023-04-27T03:10:42;92588.22;;;6.02;100.00
52735;BME280;38631;47.572;10.704;2023-04-27T03:13:08;92581.13;;;5.98;100.00
52735;BME280;38631;47.572;10.704;2023-04-27T03:15:33;92581.13;;;5.93;100.00
52735;BME280;38631;47.572;10.704;2023-04-27T03:17:59;92581.22;;;5.77;100.00
52735;BME280;38631;47.572;10.704;2023-04-27T03:20:24;92584.78;;;6.02;100.00
52735;BME280;38631;47.572;10.704;2023-04-27T03:22:50;92585.72;;;6.16;100.00
52735;BME280;38631;47.572;10.704;2023-04-27T03:25:15;92575.22;;;6.11;100.00
52735;BME280;38631;47.572;10.704;2023-04-27T03:27:41;92579.22;;;6.03;100.00
52735;BME280;38631;47.572;10.704;2023-04-27T03:30:08;92578.09;;;6.15;100.00
52735;BME280;38631;47.572;10.704;2023-04-27T03:32:33;92582.28;;;6.16;100.00
52735;BME280;38631;47.572;10.704;2023-04-27T03:34:59;92587.78;;;6.19;100.00
52735;BME280;38631;47.572;10.704;2023-04-27T03:37:24;92583.19;;;6.01;100.00
52735;BME280;38631;47.572;10.704;2023-04-27T03:39:49;92595.00;;;6.09;100.00
52735;BME280;38631;47.572;10.704;2023-04-27T03:42:15;92592.03;;;6.20;100.00
52735;BME280;38631;47.572;10.704;2023-04-27T03:44:40;92588.03;;;5.83;100.00
52735;BME280;38631;47.572;10.704;2023-04-27T03:47:06;92587.03;;;5.79;100.00
52735;BME280;38631;47.572;10.704;2023-04-27T03:49:34;92584.31;;;5.90;100.00
52735;BME280;38631;47.572;10.704;2023-04-27T03:51:59;92595.41;;;5.81;100.00
52735;BME280;38631;47.572;10.704;2023-04-27T03:54:25;92602.84;;;5.79;100.00
52735;BME280;38631;47.572;10.704;2023-04-27T03:56:50;92594.13;;;5.79;100.00
52735;BME280;38631;47.572;10.704;2023-04-27T03:59:16;92602.31;;;5.77;100.00
52735;BME280;38631;47.572;10.704;2023-04-27T04:01:41;92601.16;;;5.89;100.00
52735;BME280;38631;47.572;10.704;2023-04-27T04:04:08;92599.97;;;5.71;100.00
52735;BME280;38631;47.572;10.704;2023-04-27T04:06:33;92608.66;;;5.71;100.00
52735;BME280;38631;47.572;10.704;2023-04-27T04:08:59;92615.44;;;5.82;100.00
52735;BME280;38631;47.572;10.704;2023-04-27T04:11:25;92613.50;;;6.03;100.00
52735;BME280;38631;47.572;10.704;2023-04-27T04:13:51;92617.94;;;6.08;100.00
52735;BME280;38631;47.572;10.704;2023-04-27T04:16:16;92619.69;;;5.78;100.00
52735;BME280;38631;47.572;10.704;2023-04-27T04:18:42;92620.78;;;5.72;100.00
52735;BME280;38631;47.572;10.704;2023-04-27T04:21:08;92620.16;;;5.85;100.00
52735;BME280;38631;47.572;10.704;2023-04-27T04:23:35;92622.84;;;5.80;100.00
52735;BME280;38631;47.572;10.704;2023-04-27T04:26:01;92622.53;;;5.87;100.00
52735;BME280;38631;47.572;10.704;2023-04-27T04:28:27;92630.13;;;5.99;100.00
52735;BME280;38631;47.572;10.704;2023-04-27T04:30:52;92627.34;;;5.75;100.00
52735;BME280;38631;47.572;10.704;2023-04-27T04:33:17;92625.44;;;5.85;100.00
52735;BME280;38631;47.572;10.704;2023-04-27T04:35:43;92634.09;;;5.96;100.00
52735;BME280;38631;47.572;10.704;2023-04-27T04:38:09;92635.38;;;5.99;100.00
52735;BME280;38631;47.572;10.704;2023-04-27T04:40:37;92629.03;;;6.05;100.00
52735;BME280;38631;47.572;10.704;2023-04-27T04:43:02;92622.66;;;6.11;100.00
52735;BME280;38631;47.572;10.704;2023-04-27T04:45:27;92634.97;;;6.21;100.00
52735;BME280;38631;47.572;10.704;2023-04-27T04:47:53;92639.56;;;6.10;100.00
52735;BME280;38631;47.572;10.704;2023-04-27T04:50:19;92635.97;;;5.85;100.00
52735;BME280;38631;47.572;10.704;2023-04-27T04:52:46;92638.63;;;5.85;100.00
52735;BME280;38631;47.572;10.704;2023-04-27T04:55:11;92636.28;;;5.79;100.00
52735;BME280;38631;47.572;10.704;2023-04-27T04:57:37;92640.19;;;5.87;100.00
52735;BME280;38631;47.572;10.704;2023-04-27T05:00:13;92637.69;;;6.11;100.00
52735;BME280;38631;47.572;10.704;2023-04-27T05:02:39;92637.88;;;6.24;100.00
52735;BME280;38631;47.572;10.704;2023-04-27T05:05:05;92641.81;;;6.22;100.00
52735;BME280;38631;47.572;10.704;2023-04-27T05:07:30;92645.31;;;6.17;100.00
52735;BME280;38631;47.572;10.704;2023-04-27T05:09:56;92638.69;;;6.20;100.00
52735;BME280;38631;47.572;10.704;2023-04-27T05:12:21;92637.59;;;6.26;100.00
52735;BME280;38631;47.572;10.704;2023-04-27T05:14:47;92639.19;;;6.27;100.00
52735;BME280;38631;47.572;10.704;2023-04-27T05:17:12;92634.91;;;6.31;100.00
52735;BME280;38631;47.572;10.704;2023-04-27T05:19:38;92639.25;;;6.12;100.00
52735;BME280;38631;47.572;10.704;2023-04-27T05:22:03;92644.03;;;6.10;100.00
52735;BME280;38631;47.572;10.704;2023-04-27T05:24:28;92636.94;;;6.05;100.00
52735;BME280;38631;47.572;10.704;2023-04-27T05:26:54;92634.97;;;6.21;100.00
52735;BME280;38631;47.572;10.704;2023-04-27T05:29:20;92625.34;;;6.06;100.00
52735;BME280;38631;47.572;10.704;2023-04-27T05:31:46;92643.63;;;6.26;100.00
52735;BME280;38631;47.572;10.704;2023-04-27T05:34:11;92643.28;;;6.38;100.00
52735;BME280;38631;47.572;10.704;2023-04-27T05:36:37;92632.59;;;6.24;100.00
52735;BME280;38631;47.572;10.704;2023-04-27T05:39:03;92639.34;;;6.36;100.00
52735;BME280;38631;47.572;10.704;2023-04-27T05:41:30;92636.91;;;6.44;100.00
52735;BME280;38631;47.572;10.704;2023-04-27T05:43:55;92637.75;;;6.40;100.00
52735;BME280;38631;47.572;10.704;2023-04-27T05:46:21;92638.81;;;6.39;100.00
52735;BME280;38631;47.572;10.704;2023-04-27T05:48:46;92640.06;;;6.46;100.00
52735;BME280;38631;47.572;10.704;2023-04-27T05:51:12;92643.00;;;6.45;100.00
52735;BME280;38631;47.572;10.704;2023-04-27T05:53:37;92640.31;;;6.50;100.00
52735;BME280;38631;47.572;10.704;2023-04-27T05:56:03;92635.50;;;6.23;100.00
52735;BME280;38631;47.572;10.704;2023-04-27T05:58:42;92635.75;;;6.21;100.00
52735;BME280;38631;47.572;10.704;2023-04-27T06:01:14;92627.72;;;6.37;100.00
52735;BME280;38631;47.572;10.704;2023-04-27T06:03:39;92634.03;;;6.41;100.00
52735;BME280;38631;47.572;10.704;2023-04-27T06:06:12;92638.53;;;6.40;100.00
52735;BME280;38631;47.572;10.704;2023-04-27T06:08:37;92632.41;;;6.50;100.00
52735;BME280;38631;47.572;10.704;2023-04-27T06:11:03;92631.00;;;6.58;100.00
52735;BME280;38631;47.572;10.704;2023-04-27T06:13:30;92625.44;;;6.59;100.00
52735;BME280;38631;47.572;10.704;2023-04-27T06:16:05;92635.25;;;6.54;100.00
52735;BME280;38631;47.572;10.704;2023-04-27T06:18:30;92634.69;;;6.57;100.00
52735;BME280;38631;47.572;10.704;2023-04-27T06:20:59;92632.09;;;6.52;100.00
52735;BME280;38631;47.572;10.704;2023-04-27T06:23:25;92639.91;;;6.62;100.00
52735;BME280;38631;47.572;10.704;2023-04-27T06:25:51;92641.22;;;6.64;100.00
52735;BME280;38631;47.572;10.704;2023-04-27T06:28:16;92640.78;;;6.57;100.00
52735;BME280;38631;47.572;10.704;2023-04-27T06:30:42;92646.53;;;6.59;100.00
52735;BME280;38631;47.572;10.704;2023-04-27T06:33:07;92638.72;;;6.78;100.00
52735;BME280;38631;47.572;10.704;2023-04-27T06:35:33;92643.41;;;6.86;100.00
52735;BME280;38631;47.572;10.704;2023-04-27T06:37:58;92633.09;;;6.90;100.00
52735;BME280;38631;47.572;10.704;2023-04-27T06:40:24;92637.25;;;6.96;100.00
52735;BME280;38631;47.572;10.704;2023-04-27T06:42:51;92644.06;;;7.02;100.00
52735;BME280;38631;47.572;10.704;2023-04-27T06:45:16;92651.94;;;7.07;100.00
52735;BME280;38631;47.572;10.704;2023-04-27T06:47:41;92648.19;;;7.08;100.00
52735;BME280;38631;47.572;10.704;2023-04-27T06:50:07;92652.91;;;7.11;100.00
52735;BME280;38631;47.572;10.704;2023-04-27T06:52:33;92651.47;;;7.00;100.00
52735;BME280;38631;47.572;10.704;2023-04-27T06:54:58;92651.69;;;7.04;100.00
52735;BME280;38631;47.572;10.704;2023-04-27T06:57:23;92648.94;;;7.14;100.00
52735;BME280;38631;47.572;10.704;2023-04-27T06:59:50;92650.84;;;7.08;100.00
52735;BME280;38631;47.572;10.704;2023-04-27T07:02:15;92658.44;;;7.15;100.00
52735;BME280;38631;47.572;10.704;2023-04-27T07:04:41;92664.16;;;7.22;100.00
52735;BME280;38631;47.572;10.704;2023-04-27T07:07:07;92659.28;;;7.10;100.00
52735;BME280;38631;47.572;10.704;2023-04-27T07:09:33;92659.50;;;7.14;100.00
52735;BME280;38631;47.572;10.704;2023-04-27T07:11:58;92655.91;;;7.05;100.00
52735;BME280;38631;47.572;10.704;2023-04-27T07:14:25;92667.47;;;7.09;100.00
52735;BME280;38631;47.572;10.704;2023-04-27T07:16:50;92653.53;;;7.03;100.00
52735;BME280;38631;47.572;10.704;2023-04-27T07:19:16;92660.38;;;7.04;100.00
52735;BME280;38631;47.572;10.704;2023-04-27T07:21:41;92665.56;;;7.14;100.00
52735;BME280;38631;47.572;10.704;2023-04-27T07:24:07;92662.69;;;7.11;100.00
52735;BME280;38631;47.572;10.704;2023-04-27T07:26:39;92666.78;;;7.22;100.00
52735;BME280;38631;47.572;10.704;2023-04-27T07:29:05;92664.91;;;7.28;100.00
52735;BME280;38631;47.572;10.704;2023-04-27T07:31:31;92667.03;;;7.26;100.00
52735;BME280;38631;47.572;10.704;2023-04-27T07:33:57;92668.84;;;7.30;100.00
52735;BME280;38631;47.572;10.704;2023-04-27T07:36:24;92673.00;;;7.36;100.00
52735;BME280;38631;47.572;10.704;2023-04-27T07:38:51;92675.06;;;7.40;100.00
52735;BME280;38631;47.572;10.704;2023-04-27T07:41:17;92665.13;;;7.31;100.00
52735;BME280;38631;47.572;10.704;2023-04-27T07:43:44;92673.28;;;7.35;100.00
52735;BME280;38631;47.572;10.704;2023-04-27T07:46:09;92671.88;;;7.43;100.00
52735;BME280;38631;47.572;10.704;2023-04-27T07:48:35;92680.25;;;7.50;100.00
52735;BME280;38631;47.572;10.704;2023-04-27T07:51:01;92681.56;;;7.47;100.00
52735;BME280;38631;47.572;10.704;2023-04-27T07:53:26;92682.72;;;7.41;100.00
52735;BME280;38631;47.572;10.704;2023-04-27T07:55:52;92678.22;;;7.42;100.00
52735;BME280;38631;47.572;10.704;2023-04-27T07:58:18;92683.22;;;7.43;100.00
52735;BME280;38631;47.572;10.704;2023-04-27T08:00:44;92682.09;;;7.49;100.00
52735;BME280;38631;47.572;10.704;2023-04-27T08:03:10;92680.91;;;7.61;100.00
52735;BME280;38631;47.572;10.704;2023-04-27T08:05:35;92680.84;;;7.66;100.00
52735;BME280;38631;47.572;10.704;2023-04-27T08:08:01;92691.38;;;7.71;100.00
52735;BME280;38631;47.572;10.704;2023-04-27T08:10:26;92697.22;;;7.68;100.00
52735;BME280;38631;47.572;10.704;2023-04-27T08:12:52;92687.94;;;7.70;100.00
52735;BME280;38631;47.572;10.704;2023-04-27T08:15:17;92687.31;;;7.54;100.00
52735;BME280;38631;47.572;10.704;2023-04-27T08:17:42;92688.06;;;7.60;100.00
52735;BME280;38631;47.572;10.704;2023-04-27T08:20:08;92695.56;;;7.72;100.00
52735;BME280;38631;47.572;10.704;2023-04-27T08:22:40;92701.44;;;7.69;100.00
52735;BME280;38631;47.572;10.704;2023-04-27T08:25:07;92701.88;;;7.76;100.00
52735;BME280;38631;47.572;10.704;2023-04-27T08:27:36;92701.25;;;7.84;100.00
52735;BME280;38631;47.572;10.704;2023-04-27T08:30:02;92698.44;;;7.75;100.00
52735;BME280;38631;47.572;10.704;2023-04-27T08:32:28;92695.06;;;7.70;100.00
52735;BME280;38631;47.572;10.704;2023-04-27T08:34:53;92696.72;;;7.66;100.00
52735;BME280;38631;47.572;10.704;2023-04-27T08:37:18;92702.28;;;7.64;100.00
52735;BME280;38631;47.572;10.704;2023-04-27T08:39:45;92689.00;;;7.69;100.00
52735;BME280;38631;47.572;10.704;2023-04-27T08:42:11;92702.91;;;7.80;100.00
52735;BME280;38631;47.572;10.704;2023-04-27T08:44:38;92699.69;;;7.83;100.00
52735;BME280;38631;47.572;10.704;2023-04-27T08:47:04;92699.44;;;7.79;100.00
52735;BME280;38631;47.572;10.704;2023-04-27T08:49:30;92689.44;;;7.76;100.00
52735;BME280;38631;47.572;10.704;2023-04-27T08:51:55;92698.84;;;7.88;100.00
52735;BME280;38631;47.572;10.704;2023-04-27T08:54:21;92692.59;;;7.97;100.00
52735;BME280;38631;47.572;10.704;2023-04-27T08:56:46;92697.97;;;7.92;100.00
52735;BME280;38631;47.572;10.704;2023-04-27T08:59:13;92701.34;;;7.98;100.00
52735;BME280;38631;47.572;10.704;2023-04-27T09:01:45;92694.97;;;7.99;100.00
52735;BME280;38631;47.572;10.704;2023-04-27T09:04:13;92689.19;;;7.97;100.00
52735;BME280;38631;47.572;10.704;2023-04-27T09:06:38;92690.34;;;8.10;100.00
52735;BME280;38631;47.572;10.704;2023-04-27T09:09:04;92694.19;;;8.17;100.00
52735;BME280;38631;47.572;10.704;2023-04-27T09:11:37;92700.16;;;8.28;100.00
52735;BME280;38631;47.572;10.704;2023-04-27T09:14:15;92697.44;;;8.33;100.00
52735;BME280;38631;47.572;10.704;2023-04-27T09:16:41;92696.41;;;8.29;100.00
52735;BME280;38631;47.572;10.704;2023-04-27T09:19:07;92685.06;;;8.67;100.00
52735;BME280;38631;47.572;10.704;2023-04-27T09:21:32;92684.03;;;8.62;100.00
52735;BME280;38631;47.572;10.704;2023-04-27T09:24:09;92691.63;;;8.69;100.00
52735;BME280;38631;47.572;10.704;2023-04-27T09:26:36;92682.03;;;8.73;100.00
52735;BME280;38631;47.572;10.704;2023-04-27T09:29:01;92682.06;;;8.87;100.00
52735;BME280;38631;47.572;10.704;2023-04-27T09:31:34;92683.59;;;8.74;100.00
52735;BME280;38631;47.572;10.704;2023-04-27T09:34:02;92680.09;;;8.79;100.00
52735;BME280;38631;47.572;10.704;2023-04-27T09:36:33;92683.66;;;8.88;100.00
52735;BME280;38631;47.572;10.704;2023-04-27T09:39:02;92668.41;;;8.80;100.00
52735;BME280;38631;47.572;10.704;2023-04-27T09:41:31;92671.66;;;8.77;100.00
52735;BME280;38631;47.572;10.704;2023-04-27T09:43:57;92671.31;;;8.64;100.00
52735;BME280;38631;47.572;10.704;2023-04-27T09:46:24;92678.91;;;8.71;100.00
52735;BME280;38631;47.572;10.704;2023-04-27T09:48:51;92674.28;;;8.77;100.00
52735;BME280;38631;47.572;10.704;2023-04-27T09:51:16;92680.50;;;8.86;100.00
52735;BME280;38631;47.572;10.704;2023-04-27T09:53:53;92674.91;;;8.87;100.00
52735;BME280;38631;47.572;10.704;2023-04-27T10:01:56;92670.41;;;8.88;100.00
52735;BME280;38631;47.572;10.704;2023-04-27T10:07:16;92670.03;;;8.95;100.00
52735;BME280;38631;47.572;10.704;2023-04-27T10:09:47;92679.16;;;8.89;100.00
52735;BME280;38631;47.572;10.704;2023-04-27T10:14:54;92669.63;;;8.87;100.00
52735;BME280;38631;47.572;10.704;2023-04-27T10:17:37;92673.34;;;8.86;100.00
52735;BME280;38631;47.572;10.704;2023-04-27T10:20:05;92663.25;;;8.89;100.00
52735;BME280;38631;47.572;10.704;2023-04-27T10:22:48;92670.03;;;8.95;100.00
52735;BME280;38631;47.572;10.704;2023-04-27T10:27:55;92669.13;;;8.85;100.00
52735;BME280;38631;47.572;10.704;2023-04-27T10:30:24;92666.25;;;8.68;100.00
52735;BME280;38631;47.572;10.704;2023-04-27T10:32:51;92657.63;;;8.76;100.00
52735;BME280;38631;47.572;10.704;2023-04-27T10:35:18;92659.91;;;8.83;100.00
52735;BME280;38631;47.572;10.704;2023-04-27T10:37:45;92657.47;;;8.86;100.00
52735;BME280;38631;47.572;10.704;2023-04-27T10:40:17;92660.44;;;8.99;100.00
52735;BME280;38631;47.572;10.704;2023-04-27T10:43:16;92640.56;;;8.82;100.00
52735;BME280;38631;47.572;10.704;2023-04-27T10:45:52;92656.00;;;8.94;100.00
52735;BME280;38631;47.572;10.704;2023-04-27T10:48:19;92657.59;;;9.09;100.00
52735;BME280;38631;47.572;10.704;2023-04-27T10:50:55;92659.16;;;9.10;100.00
52735;BME280;38631;47.572;10.704;2023-04-27T10:53:33;92664.97;;;9.12;100.00
52735;BME280;38631;47.572;10.704;2023-04-27T10:56:02;92663.09;;;9.13;100.00
52735;BME280;38631;47.572;10.704;2023-04-27T10:58:31;92664.09;;;9.17;100.00
52735;BME280;38631;47.572;10.704;2023-04-27T11:00:57;92661.16;;;9.18;100.00
52735;BME280;38631;47.572;10.704;2023-04-27T11:03:23;92660.34;;;9.18;100.00
52735;BME280;38631;47.572;10.704;2023-04-27T11:06:02;92658.81;;;9.30;100.00
52735;BME280;38631;47.572;10.704;2023-04-27T11:08:42;92668.81;;;9.47;100.00
52735;BME280;38631;47.572;10.704;2023-04-27T11:11:15;92664.59;;;9.60;99.87
52735;BME280;38631;47.572;10.704;2023-04-27T11:13:47;92660.97;;;9.84;100.00
52735;BME280;38631;47.572;10.704;2023-04-27T11:16:16;92655.16;;;9.82;96.56
52735;BME280;38631;47.572;10.704;2023-04-27T11:18:43;92653.78;;;9.84;96.63
52735;BME280;38631;47.572;10.704;2023-04-27T11:21:19;92656.06;;;10.27;97.63
52735;BME280;38631;47.572;10.704;2023-04-27T11:23:45;92651.56;;;10.50;93.86
52735;BME280;38631;47.572;10.704;2023-04-27T11:26:14;92652.53;;;10.32;94.39
52735;BME280;38631;47.572;10.704;2023-04-27T11:31:25;92656.94;;;10.36;94.00
52735;BME280;38631;47.572;10.704;2023-04-27T11:33:52;92661.66;;;10.40;88.50
52735;BME280;38631;47.572;10.704;2023-04-27T11:36:18;92654.50;;;10.26;88.30
52735;BME280;38631;47.572;10.704;2023-04-27T11:38:45;92664.00;;;10.27;90.47
52735;BME280;38631;47.572;10.704;2023-04-27T11:41:16;92655.88;;;10.24;88.06
52735;BME280;38631;47.572;10.704;2023-04-27T11:43:49;92659.22;;;10.15;86.97
52735;BME280;38631;47.572;10.704;2023-04-27T11:46:19;92657.78;;;10.09;90.12
52735;BME280;38631;47.572;10.704;2023-04-27T11:48:44;92659.47;;;9.91;90.20
52735;BME280;38631;47.572;10.704;2023-04-27T11:51:12;92663.28;;;9.99;89.28
52735;BME280;38631;47.572;10.704;2023-04-27T11:53:40;92665.34;;;10.02;86.88
52735;BME280;38631;47.572;10.704;2023-04-27T11:56:09;92667.94;;;9.93;87.59
52735;BME280;38631;47.572;10.704;2023-04-27T11:58:38;92664.47;;;9.93;90.66
52735;BME280;38631;47.572;10.704;2023-04-27T12:01:05;92669.31;;;9.91;88.85
52735;BME280;38631;47.572;10.704;2023-04-27T12:03:31;92661.91;;;9.88;89.72
52735;BME280;38631;47.572;10.704;2023-04-27T12:05:57;92672.81;;;10.14;88.42
52735;BME280;38631;47.572;10.704;2023-04-27T12:08:23;92662.91;;;10.06;84.57
52735;BME280;38631;47.572;10.704;2023-04-27T12:10:49;92661.31;;;10.05;85.78
52735;BME280;38631;47.572;10.704;2023-04-27T12:13:15;92669.66;;;10.12;85.12
52735;BME280;38631;47.572;10.704;2023-04-27T12:15:41;92664.72;;;10.19;85.91
52735;BME280;38631;47.572;10.704;2023-04-27T12:18:07;92663.75;;;10.15;83.25
52735;BME280;38631;47.572;10.704;2023-04-27T12:20:33;92663.63;;;10.20;81.84
52735;BME280;38631;47.572;10.704;2023-04-27T12:22:58;92670.28;;;10.45;84.25
52735;BME280;38631;47.572;10.704;2023-04-27T12:25:24;92658.84;;;10.81;82.31
52735;BME280;38631;47.572;10.704;2023-04-27T12:27:50;92658.25;;;11.15;82.03
52735;BME280;38631;47.572;10.704;2023-04-27T12:30:16;92664.09;;;11.26;82.28
52735;BME280;38631;47.572;10.704;2023-04-27T12:32:41;92659.31;;;10.83;80.74
52735;BME280;38631;47.572;10.704;2023-04-27T12:35:08;92654.09;;;10.78;82.59
52735;BME280;38631;47.572;10.704;2023-04-27T12:37:36;92657.31;;;10.89;81.54
52735;BME280;38631;47.572;10.704;2023-04-27T12:40:02;92649.09;;;10.99;83.05
52735;BME280;38631;47.572;10.704;2023-04-27T12:42:31;92641.19;;;10.85;83.78
52735;BME280;38631;47.572;10.704;2023-04-27T12:44:56;92652.19;;;10.92;84.94
52735;BME280;38631;47.572;10.704;2023-04-27T12:47:22;92645.19;;;10.96;85.79
52735;BME280;38631;47.572;10.704;2023-04-27T12:49:48;92649.59;;;10.78;84.32
52735;BME280;38631;47.572;10.704;2023-04-27T12:52:16;92651.00;;;10.76;83.89
52735;BME280;38631;47.572;10.704;2023-04-27T12:54:41;92660.34;;;10.73;83.61
52735;BME280;38631;47.572;10.704;2023-04-27T12:57:07;92646.72;;;10.66;84.16
52735;BME280;38631;47.572;10.704;2023-04-27T12:59:35;92643.94;;;10.71;84.66
52735;BME280;38631;47.572;10.704;2023-04-27T13:02:01;92647.25;;;10.77;86.33
52735;BME280;38631;47.572;10.704;2023-04-27T13:04:28;92655.34;;;10.72;81.24